AEE2MK LGIR-LGMK
Flight info
| Callsign | AEE2MK |
|---|---|
| Flight time | 0h 29m |
| Altitude | 20000 |
| Route | IRA M749 MIL/N0404F190 R32 DIDIS |
| Aircraft | A320/M-SDE3FGHIRWY/LB1 |
Departure
| Time | 2026-04-21 14:54 |
|---|---|
| Airport | Heraklion International Nikos Kazantzakis Airport (LGIR) |
Arrival
| Time | 2026-04-21 15:23 |
|---|---|
| Airport | Mykonos Island National Airport (LGMK) |
| Time | Latitude | Longitude | Altitude | Speed | Heading |
|---|---|---|---|---|---|
| 2026-04-21 14:29 | 35.33877 | 25.17425 | 91 ft | 0 kts | 316° |
| 2026-04-21 14:48 | 35.33881 | 25.17420 | 91 ft | 3 kts | 316° |
| 2026-04-21 14:48 | 35.33909 | 25.17407 | 95 ft | 5 kts | 14° |
| 2026-04-21 14:48 | 35.33915 | 25.17459 | 91 ft | 8 kts | 94° |
| 2026-04-21 14:49 | 35.33910 | 25.17535 | 94 ft | 10 kts | 95° |
| 2026-04-21 14:49 | 35.33903 | 25.17630 | 91 ft | 12 kts | 95° |
| 2026-04-21 14:49 | 35.33895 | 25.17742 | 94 ft | 14 kts | 95° |
| 2026-04-21 14:49 | 35.33886 | 25.17875 | 92 ft | 16 kts | 95° |
| 2026-04-21 14:50 | 35.33883 | 25.17939 | 92 ft | 10 kts | 89° |
| 2026-04-21 14:50 | 35.33946 | 25.18014 | 93 ft | 10 kts | 36° |
| 2026-04-21 14:50 | 35.33970 | 25.18104 | 94 ft | 13 kts | 94° |
| 2026-04-21 14:50 | 35.33962 | 25.18225 | 93 ft | 16 kts | 95° |
| 2026-04-21 14:51 | 35.33951 | 25.18371 | 91 ft | 19 kts | 95° |
| 2026-04-21 14:51 | 35.33939 | 25.18552 | 91 ft | 23 kts | 95° |
| 2026-04-21 14:51 | 35.33925 | 25.18753 | 92 ft | 20 kts | 95° |
| 2026-04-21 14:51 | 35.33913 | 25.18930 | 89 ft | 17 kts | 95° |
| 2026-04-21 14:52 | 35.33895 | 25.19009 | 90 ft | 8 kts | 121° |
| 2026-04-21 14:52 | 35.33903 | 25.19050 | 92 ft | 5 kts | 340° |
| 2026-04-21 14:52 | 35.33909 | 25.18992 | 90 ft | 9 kts | 274° |
| 2026-04-21 14:52 | 35.33912 | 25.18945 | 91 ft | 0 kts | 274° |
| 2026-04-21 14:53 | 35.33912 | 25.18935 | 90 ft | 7 kts | 274° |
| 2026-04-21 14:53 | 35.33937 | 25.18585 | 89 ft | 78 kts | 275° |
| 2026-04-21 14:53 | 35.33999 | 25.17668 | 96 ft | 135 kts | 275° |
| 2026-04-21 14:53 | 35.34086 | 25.16391 | 414 ft | 153 kts | 277° |
| 2026-04-21 14:54 | 35.34258 | 25.15120 | 1123 ft | 152 kts | 297° |
| 2026-04-21 14:54 | 35.35005 | 25.14234 | 1863 ft | 155 kts | 338° |
| 2026-04-21 14:54 | 35.35850 | 25.14179 | 2391 ft | 162 kts | 12° |
| 2026-04-21 14:54 | 35.36890 | 25.14667 | 3134 ft | 155 kts | 7° |
| 2026-04-21 14:55 | 35.37601 | 25.14614 | 3586 ft | 142 kts | 335° |
| 2026-04-21 14:55 | 35.38530 | 25.14243 | 4274 ft | 145 kts | 342° |
| 2026-04-21 14:55 | 35.39593 | 25.13980 | 4917 ft | 165 kts | 345° |
| 2026-04-21 14:55 | 35.40741 | 25.13735 | 5515 ft | 173 kts | 346° |
| 2026-04-21 14:56 | 35.42005 | 25.13466 | 5830 ft | 196 kts | 346° |
| 2026-04-21 14:56 | 35.43406 | 25.13164 | 6155 ft | 218 kts | 346° |
| 2026-04-21 14:56 | 35.44985 | 25.12817 | 6487 ft | 243 kts | 346° |
| 2026-04-21 14:56 | 35.46731 | 25.12430 | 6958 ft | 264 kts | 346° |
| 2026-04-21 14:57 | 35.48576 | 25.12025 | 7733 ft | 271 kts | 346° |
| 2026-04-21 14:57 | 35.50445 | 25.11618 | 8613 ft | 275 kts | 347° |
| 2026-04-21 14:57 | 35.52336 | 25.11207 | 9507 ft | 277 kts | 347° |
| 2026-04-21 14:57 | 35.54253 | 25.10787 | 10283 ft | 285 kts | 347° |
| 2026-04-21 14:58 | 35.56282 | 25.10333 | 10553 ft | 308 kts | 347° |
| 2026-04-21 14:58 | 35.58477 | 25.09840 | 10765 ft | 332 kts | 347° |
| 2026-04-21 14:58 | 35.60833 | 25.09310 | 10897 ft | 355 kts | 347° |
| 2026-04-21 14:58 | 35.63334 | 25.08748 | 11079 ft | 374 kts | 347° |
| 2026-04-21 14:59 | 35.65930 | 25.08167 | 11564 ft | 382 kts | 347° |
| 2026-04-21 14:59 | 35.68567 | 25.07619 | 12183 ft | 387 kts | 352° |
| 2026-04-21 14:59 | 35.71258 | 25.07716 | 12797 ft | 395 kts | 4° |
| 2026-04-21 14:59 | 35.73999 | 25.08111 | 13429 ft | 398 kts | 4° |
| 2026-04-21 15:00 | 35.76758 | 25.08525 | 14042 ft | 401 kts | 4° |
| 2026-04-21 15:00 | 35.79541 | 25.08952 | 14616 ft | 404 kts | 4° |
| 2026-04-21 15:00 | 35.82343 | 25.09382 | 15172 ft | 407 kts | 4° |
| 2026-04-21 15:00 | 35.85164 | 25.09817 | 15717 ft | 410 kts | 4° |
| 2026-04-21 15:01 | 35.88006 | 25.10253 | 16255 ft | 413 kts | 4° |
| 2026-04-21 15:01 | 35.90871 | 25.10690 | 16795 ft | 416 kts | 4° |
| 2026-04-21 15:01 | 35.93755 | 25.11130 | 17342 ft | 419 kts | 3° |
| 2026-04-21 15:01 | 35.96667 | 25.11573 | 17882 ft | 423 kts | 3° |
| 2026-04-21 15:02 | 35.99596 | 25.12017 | 18403 ft | 426 kts | 3° |
| 2026-04-21 15:02 | 36.02547 | 25.12464 | 18868 ft | 429 kts | 3° |
| 2026-04-21 15:02 | 36.05515 | 25.12915 | 19338 ft | 431 kts | 3° |
| 2026-04-21 15:02 | 36.08503 | 25.13370 | 19789 ft | 434 kts | 3° |
| 2026-04-21 15:03 | 36.11502 | 25.13828 | 19952 ft | 435 kts | 3° |
| 2026-04-21 15:03 | 36.14534 | 25.14290 | 20008 ft | 441 kts | 3° |
| 2026-04-21 15:03 | 36.17584 | 25.14756 | 19992 ft | 442 kts | 3° |
| 2026-04-21 15:03 | 36.20643 | 25.15225 | 19988 ft | 442 kts | 3° |
| 2026-04-21 15:04 | 36.23695 | 25.15696 | 19989 ft | 442 kts | 3° |
| 2026-04-21 15:04 | 36.26748 | 25.16168 | 19989 ft | 442 kts | 3° |
| 2026-04-21 15:04 | 36.29805 | 25.16641 | 19989 ft | 442 kts | 3° |
| 2026-04-21 15:04 | 36.32860 | 25.17114 | 19988 ft | 443 kts | 3° |
| 2026-04-21 15:05 | 36.35918 | 25.17586 | 19991 ft | 442 kts | 3° |
| 2026-04-21 15:05 | 36.42026 | 25.18527 | 19978 ft | 442 kts | 3° |
| 2026-04-21 15:05 | 36.45074 | 25.18992 | 19974 ft | 441 kts | 3° |
| 2026-04-21 15:06 | 36.48117 | 25.19456 | 19971 ft | 441 kts | 3° |
| 2026-04-21 15:06 | 36.51171 | 25.19926 | 19972 ft | 441 kts | 3° |
| 2026-04-21 15:06 | 36.54218 | 25.20398 | 19962 ft | 441 kts | 3° |
| 2026-04-21 15:06 | 36.57271 | 25.20877 | 19971 ft | 441 kts | 3° |
| 2026-04-21 15:07 | 36.60280 | 25.21350 | 19964 ft | 441 kts | 3° |
| 2026-04-21 15:07 | 36.63328 | 25.21826 | 19961 ft | 441 kts | 3° |
| 2026-04-21 15:07 | 36.66385 | 25.22298 | 19887 ft | 442 kts | 3° |
| 2026-04-21 15:07 | 36.69440 | 25.22767 | 19642 ft | 441 kts | 3° |
| 2026-04-21 15:08 | 36.72483 | 25.23236 | 19395 ft | 440 kts | 3° |
| 2026-04-21 15:08 | 36.74495 | 25.23545 | 19075 ft | 437 kts | 3° |
| 2026-04-21 15:08 | 36.77505 | 25.24010 | 18091 ft | 436 kts | 3° |
| 2026-04-21 15:08 | 36.80504 | 25.24476 | 17151 ft | 431 kts | 3° |
| 2026-04-21 15:09 | 36.83459 | 25.24939 | 16271 ft | 425 kts | 4° |
| 2026-04-21 15:09 | 36.86382 | 25.25399 | 15399 ft | 421 kts | 4° |
| 2026-04-21 15:09 | 36.89275 | 25.25854 | 14565 ft | 417 kts | 4° |
| 2026-04-21 15:09 | 36.92150 | 25.26306 | 13763 ft | 414 kts | 4° |
| 2026-04-21 15:10 | 36.94991 | 25.26750 | 12932 ft | 410 kts | 4° |
| 2026-04-21 15:10 | 36.97799 | 25.27187 | 12226 ft | 404 kts | 4° |
| 2026-04-21 15:10 | 37.00570 | 25.27616 | 11506 ft | 398 kts | 4° |
| 2026-04-21 15:10 | 37.03274 | 25.28036 | 11225 ft | 382 kts | 4° |
| 2026-04-21 15:11 | 37.05840 | 25.28440 | 11102 ft | 362 kts | 4° |
| 2026-04-21 15:11 | 37.08277 | 25.28827 | 10976 ft | 344 kts | 4° |
| 2026-04-21 15:11 | 37.10599 | 25.29198 | 10854 ft | 329 kts | 4° |
| 2026-04-21 15:11 | 37.12828 | 25.29550 | 10731 ft | 317 kts | 4° |
| 2026-04-21 15:12 | 37.14974 | 25.29887 | 10609 ft | 305 kts | 4° |
| 2026-04-21 15:12 | 37.17046 | 25.30213 | 10474 ft | 295 kts | 4° |
| 2026-04-21 15:12 | 37.19065 | 25.30531 | 10290 ft | 288 kts | 4° |
| 2026-04-21 15:12 | 37.21050 | 25.30841 | 10223 ft | 288 kts | 4° |
| 2026-04-21 15:13 | 37.23039 | 25.31150 | 10110 ft | 288 kts | 4° |
| 2026-04-21 15:13 | 37.25022 | 25.31457 | 9984 ft | 287 kts | 4° |
| 2026-04-21 15:13 | 37.27027 | 25.31767 | 9487 ft | 293 kts | 4° |
| 2026-04-21 15:13 | 37.29031 | 25.32082 | 9203 ft | 288 kts | 4° |
| 2026-04-21 15:14 | 37.31008 | 25.32393 | 8683 ft | 285 kts | 4° |
| 2026-04-21 15:14 | 37.32977 | 25.32701 | 8013 ft | 284 kts | 4° |
| 2026-04-21 15:14 | 37.34908 | 25.33004 | 7384 ft | 283 kts | 4° |
| 2026-04-21 15:14 | 37.36871 | 25.33314 | 6846 ft | 279 kts | 5° |
| 2026-04-21 15:15 | 37.38738 | 25.33562 | 6548 ft | 265 kts | 357° |
| 2026-04-21 15:15 | 37.40465 | 25.33111 | 6401 ft | 243 kts | 332° |
| 2026-04-21 15:15 | 37.41859 | 25.31889 | 6503 ft | 246 kts | 311° |
| 2026-04-21 15:15 | 37.42790 | 25.30087 | 6228 ft | 248 kts | 289° |
| 2026-04-21 15:16 | 37.43062 | 25.27979 | 5932 ft | 245 kts | 267° |
| 2026-04-21 15:16 | 37.42796 | 25.25862 | 5619 ft | 245 kts | 259° |
| 2026-04-21 15:16 | 37.42482 | 25.23762 | 5330 ft | 244 kts | 259° |
| 2026-04-21 15:16 | 37.42175 | 25.21671 | 5038 ft | 243 kts | 260° |
| 2026-04-21 15:17 | 37.42236 | 25.19568 | 4749 ft | 244 kts | 286° |
| 2026-04-21 15:17 | 37.43118 | 25.17759 | 4353 ft | 248 kts | 314° |
| 2026-04-21 15:17 | 37.44679 | 25.16719 | 3714 ft | 263 kts | 345° |
| 2026-04-21 15:17 | 37.46417 | 25.16272 | 3566 ft | 244 kts | 346° |
| 2026-04-21 15:18 | 37.48009 | 25.15860 | 3489 ft | 225 kts | 346° |
| 2026-04-21 15:18 | 37.49524 | 25.15489 | 3384 ft | 222 kts | 353° |
| 2026-04-21 15:18 | 37.51008 | 25.15905 | 3275 ft | 220 kts | 33° |
| 2026-04-21 15:18 | 37.51940 | 25.17328 | 3060 ft | 210 kts | 72° |
| 2026-04-21 15:19 | 37.52357 | 25.19081 | 2852 ft | 209 kts | 76° |
| 2026-04-21 15:19 | 37.52766 | 25.20841 | 2629 ft | 208 kts | 76° |
| 2026-04-21 15:19 | 37.53124 | 25.22571 | 2411 ft | 206 kts | 86° |
| 2026-04-21 15:19 | 37.53025 | 25.24312 | 2261 ft | 192 kts | 105° |
| 2026-04-21 15:20 | 37.52780 | 25.25910 | 2152 ft | 179 kts | 104° |
| 2026-04-21 15:20 | 37.52421 | 25.27315 | 2086 ft | 160 kts | 121° |
| 2026-04-21 15:20 | 37.51832 | 25.28447 | 2086 ft | 151 kts | 135° |
| 2026-04-21 15:20 | 37.51091 | 25.29312 | 2094 ft | 142 kts | 149° |
| 2026-04-21 15:21 | 37.50527 | 25.29775 | 2089 ft | 140 kts | 153° |
| 2026-04-21 15:21 | 37.50155 | 25.30075 | 2071 ft | 140 kts | 152° |
| 2026-04-21 15:21 | 37.49355 | 25.30771 | 1992 ft | 139 kts | 149° |
| 2026-04-21 15:21 | 37.48571 | 25.31495 | 1823 ft | 139 kts | 148° |
| 2026-04-21 15:22 | 37.47799 | 25.32232 | 1589 ft | 140 kts | 148° |
| 2026-04-21 15:22 | 37.47016 | 25.32956 | 1307 ft | 139 kts | 152° |
| 2026-04-21 15:22 | 37.46170 | 25.33582 | 859 ft | 142 kts | 156° |
| 2026-04-21 15:22 | 37.45287 | 25.34054 | 601 ft | 135 kts | 165° |
| 2026-04-21 15:23 | 37.44408 | 25.34432 | 424 ft | 132 kts | 163° |
| 2026-04-21 15:23 | 37.43614 | 25.34778 | 410 ft | 89 kts | 160° |
| 2026-04-21 15:23 | 37.43318 | 25.34908 | 413 ft | 8 kts | 165° |
| 2026-04-21 15:23 | 37.43249 | 25.34939 | 413 ft | 17 kts | 160° |
| 2026-04-21 15:24 | 37.43076 | 25.35016 | 414 ft | 35 kts | 160° |
| 2026-04-21 15:24 | 37.42832 | 25.35125 | 411 ft | 24 kts | 160° |
| 2026-04-21 15:24 | 37.42778 | 25.35137 | 411 ft | 0 kts | 182° |
| 2026-04-21 15:24 | 37.42770 | 25.35136 | 411 ft | 5 kts | 182° |
| 2026-04-21 15:25 | 37.42725 | 25.35168 | 410 ft | 4 kts | 87° |
| 2026-04-21 15:25 | 37.42772 | 25.35166 | 409 ft | 11 kts | 321° |
| 2026-04-21 15:25 | 37.42813 | 25.35134 | 409 ft | 15 kts | 334° |
| 2026-04-21 15:25 | 37.42938 | 25.35077 | 413 ft | 23 kts | 340° |
| 2026-04-21 15:26 | 37.43113 | 25.34999 | 413 ft | 31 kts | 341° |
| 2026-04-21 15:26 | 37.43198 | 25.34961 | 411 ft | 29 kts | 340° |
| 2026-04-21 15:26 | 37.43360 | 25.34886 | 412 ft | 19 kts | 333° |
| 2026-04-21 15:26 | 37.43427 | 25.34758 | 408 ft | 14 kts | 306° |
| 2026-04-21 15:27 | 37.43471 | 25.34688 | 407 ft | 11 kts | 262° |
| 2026-04-21 15:27 | 37.43466 | 25.34669 | 404 ft | 0 kts | 253° |